Time;durP1;ratioP1;P1;durP2;ratioP2;P2;SDS_P1;SDS_P2;PMS_P1;PMS_P2;Temp;Humidity;BMP_temperature;BMP_pressure;BME280_temperature;BME280_humidity;BME280_pressure;Samples;Min_cycle;Max_cycle;Signal;HPM_P1;HPM_P2
2021/05/25 00:00:42;;;;;;;47.93;26.62;;;;;;;12.12;100.00;100417.02;1785559;80;21283;-81
2021/05/25 00:03:48;;;;;;;41.28;25.55;;;;;;;12.13;100.00;100421.47;1785573;79;21315;-82
2021/05/25 00:06:56;;;;;;;37.53;20.90;;;;;;;12.18;100.00;100428.62;1785586;80;21161;-81
2021/05/25 00:10:02;;;;;;;45.23;25.10;;;;;;;12.27;100.00;100438.48;1785518;80;21200;-81
2021/05/25 00:13:07;;;;;;;45.03;27.05;;;;;;;12.34;100.00;100435.36;1785543;79;21852;-82
2021/05/25 00:16:15;;;;;;;37.73;23.80;;;;;;;12.38;100.00;100429.84;1785584;80;21148;-81
2021/05/25 00:19:21;;;;;;;42.93;24.07;;;;;;;12.42;100.00;100428.43;1785414;79;21192;-81
2021/05/25 00:22:27;;;;;;;35.85;24.32;;;;;;;12.44;100.00;100427.72;1785535;79;21141;-82
2021/05/25 00:25:34;;;;;;;49.13;24.57;;;;;;;12.45;100.00;100421.19;1785577;80;21188;-81
2021/05/25 00:28:39;;;;;;;39.55;23.42;;;;;;;12.46;100.00;100422.88;1785591;79;21320;-81
2021/05/25 00:31:45;;;;;;;28.57;18.50;;;;;;;12.47;100.00;100430.09;1785444;80;21272;-81
2021/05/25 00:34:52;;;;;;;33.10;19.85;;;;;;;12.53;100.00;100429.87;1785535;80;21707;-81
2021/05/25 00:37:59;;;;;;;31.45;18.98;;;;;;;12.56;100.00;100435.48;1785533;79;21185;-81
2021/05/25 00:41:04;;;;;;;33.83;19.40;;;;;;;12.61;100.00;100434.41;1784536;80;21292;-82
2021/05/25 00:44:11;;;;;;;24.80;18.55;;;;;;;12.63;100.00;100439.20;1785586;79;21322;-81
2021/05/25 00:47:16;;;;;;;24.40;18.27;;;;;;;12.67;100.00;100450.14;1785524;79;21144;-81
2021/05/25 00:50:25;;;;;;;21.65;16.07;;;;;;;12.72;100.00;100453.17;1785572;80;21821;-82
2021/05/25 00:53:32;;;;;;;27.73;17.45;;;;;;;12.77;100.00;100456.21;1785484;79;21627;-82
2021/05/25 00:56:38;;;;;;;23.02;18.55;;;;;;;12.81;100.00;100460.30;1785446;80;21244;-82
2021/05/25 00:59:43;;;;;;;22.75;18.52;;;;;;;12.87;100.00;100469.14;1785560;80;21826;-81
2021/05/25 01:02:49;;;;;;;24.52;16.48;;;;;;;12.95;100.00;100470.44;1785501;79;21189;-81
2021/05/25 01:05:55;;;;;;;20.10;16.50;;;;;;;13.04;100.00;100470.69;1785444;80;21295;-82
2021/05/25 01:09:01;;;;;;;15.30;12.70;;;;;;;13.11;100.00;100476.26;1785489;79;21858;-82
2021/05/25 01:12:08;;;;;;;14.93;11.38;;;;;;;13.17;100.00;100481.52;1784769;80;21177;-82
2021/05/25 01:15:14;;;;;;;13.22;9.98;;;;;;;13.23;100.00;100484.41;1785511;80;21126;-82
2021/05/25 01:18:20;;;;;;;15.45;9.75;;;;;;;13.27;100.00;100486.27;1783785;79;21200;-81
2021/05/25 01:21:29;;;;;;;14.73;10.00;;;;;;;13.31;100.00;100487.56;1783772;80;21566;-82
2021/05/25 01:24:39;;;;;;;14.07;9.70;;;;;;;13.35;100.00;100491.63;1785440;79;21762;-82
2021/05/25 01:27:45;;;;;;;8.40;7.50;;;;;;;13.42;100.00;100488.47;1785549;79;21149;-82
2021/05/25 01:30:56;;;;;;;14.73;10.20;;;;;;;13.45;100.00;100488.59;1785695;80;21857;-82
2021/05/25 01:34:01;;;;;;;10.75;8.38;;;;;;;13.45;100.00;100489.45;1785581;79;21296;-82
2021/05/25 01:37:07;;;;;;;11.60;7.90;;;;;;;13.43;100.00;100494.29;1785624;80;21263;-82
2021/05/25 01:40:13;;;;;;;7.30;5.47;;;;;;;13.41;100.00;100499.14;1785608;80;21317;-82
2021/05/25 01:43:18;;;;;;;11.30;6.10;;;;;;;13.37;100.00;100494.22;1777312;79;21280;-82
2021/05/25 01:46:24;;;;;;;9.68;6.78;;;;;;;13.34;100.00;100502.82;1771828;81;21301;-82
2021/05/25 01:49:29;;;;;;;10.03;6.42;;;;;;;13.30;100.00;100502.34;1771766;79;21335;-82
2021/05/25 01:52:34;;;;;;;8.08;6.55;;;;;;;13.29;100.00;100509.73;1771844;79;21256;-82
2021/05/25 01:55:47;;;;;;;6.70;5.75;;;;;;;13.27;100.00;100517.84;1771889;81;21814;-82
2021/05/25 01:58:53;;;;;;;4.22;3.77;;;;;;;13.28;100.00;100530.53;1771801;79;21620;-82
2021/05/25 02:01:58;;;;;;;5.95;5.35;;;;;;;13.29;100.00;100525.37;1771926;81;21177;-82
2021/05/25 02:05:05;;;;;;;7.10;5.25;;;;;;;13.28;100.00;100531.39;1771919;81;21751;-82
2021/05/25 02:08:12;;;;;;;6.97;5.30;;;;;;;13.30;100.00;100537.53;1771857;79;21182;-82
2021/05/25 02:11:18;;;;;;;7.08;5.08;;;;;;;13.32;100.00;100537.36;1771883;81;21711;-82
2021/05/25 02:14:25;;;;;;;6.50;5.80;;;;;;;13.33;100.00;100536.84;1770225;79;21194;-82
2021/05/25 02:17:33;;;;;;;6.65;5.50;;;;;;;13.35;100.00;100547.95;1771842;79;21303;-82
2021/05/25 02:20:37;;;;;;;11.53;7.67;;;;;;;13.38;100.00;100548.11;1763868;81;21703;-82
2021/05/25 02:23:42;;;;;;;12.40;8.93;;;;;;;13.39;100.00;100547.91;1771852;79;21301;-82
2021/05/25 02:26:49;;;;;;;14.58;10.85;;;;;;;13.41;100.00;100543.10;1771909;81;21142;-82
2021/05/25 02:29:55;;;;;;;32.42;17.10;;;;;;;13.46;100.00;100553.52;1771924;81;21811;-82
2021/05/25 02:33:01;;;;;;;28.50;17.62;;;;;;;13.52;100.00;100548.11;1771646;79;21165;-82
2021/05/25 02:36:07;;;;;;;34.00;23.83;;;;;;;13.59;100.00;100559.70;1771845;81;21718;-82
2021/05/25 02:39:13;;;;;;;23.83;16.73;;;;;;;13.61;100.00;100561.77;1771830;79;21212;-82
2021/05/25 02:42:17;;;;;;;22.67;15.50;;;;;;;13.62;100.00;100568.95;1771825;79;21719;-82
2021/05/25 02:45:22;;;;;;;20.70;14.80;;;;;;;13.62;100.00;100562.09;1784065;80;21294;-82
2021/05/25 02:48:30;;;;;;;20.02;14.47;;;;;;;13.64;100.00;100568.23;1785541;79;21165;-82
2021/05/25 02:51:35;;;;;;;22.25;15.35;;;;;;;13.71;100.00;100571.42;1785507;80;21161;-82
2021/05/25 02:54:42;;;;;;;20.88;13.48;;;;;;;13.79;100.00;100572.70;1785598;80;21802;-82
2021/05/25 02:57:47;;;;;;;14.80;11.63;;;;;;;13.87;100.00;100575.84;1785442;79;21200;-82
2021/05/25 03:00:55;;;;;;;14.28;11.53;;;;;;;13.95;100.00;100578.50;1785513;80;21137;-82
2021/05/25 03:04:01;;;;;;;13.85;11.45;;;;;;;14.00;100.00;100582.90;1784627;79;21291;-82
2021/05/25 03:07:06;;;;;;;14.95;12.23;;;;;;;14.06;100.00;100585.40;1785518;80;21148;-82
2021/05/25 03:10:15;;;;;;;20.95;12.45;;;;;;;14.14;100.00;100585.30;1785536;80;21754;-82
2021/05/25 03:13:20;;;;;;;20.75;13.28;;;;;;;14.22;100.00;100581.59;1785075;79;21303;-82
2021/05/25 03:16:25;;;;;;;15.23;12.65;;;;;;;14.27;99.17;100584.61;1785560;80;21152;-82
2021/05/25 03:19:32;;;;;;;18.42;12.88;;;;;;;14.31;98.25;100586.78;1780781;79;21125;-82
2021/05/25 03:22:38;;;;;;;14.35;11.83;;;;;;;14.33;97.19;100586.58;1763427;80;21205;-82
2021/05/25 03:25:44;;;;;;;16.45;11.80;;;;;;;14.38;96.22;100584.62;1738762;82;21280;-82
2021/05/25 03:28:49;;;;;;;20.35;11.80;;;;;;;14.42;95.61;100577.16;1737374;80;21240;-82
2021/05/25 03:31:57;;;;;;;21.15;11.12;;;;;;;14.62;95.26;100580.14;1775882;80;21790;-82
2021/05/25 03:35:01;;;;;;;13.43;10.30;;;;;;;14.98;94.62;100589.72;1785442;80;21189;-82
2021/05/25 03:38:07;;;;;;;14.60;10.68;;;;;;;15.42;93.47;100595.46;1785495;80;21295;-82
2021/05/25 03:41:12;;;;;;;17.62;11.45;;;;;;;15.85;91.20;100592.58;1775370;81;21682;-82
2021/05/25 03:44:20;;;;;;;15.63;11.33;;;;;;;16.18;88.38;100591.89;1774225;80;21729;-82
2021/05/25 03:47:25;;;;;;;16.80;10.58;;;;;;;16.49;85.86;100590.83;1775258;81;21263;-83
2021/05/25 03:50:31;;;;;;;15.83;11.45;;;;;;;16.70;84.03;100590.34;1756444;80;21326;-83
2021/05/25 03:53:37;;;;;;;17.00;9.78;;;;;;;16.84;82.59;100589.33;1738924;82;21327;-83
2021/05/25 03:56:56;;;;;;;15.28;10.03;;;;;;;16.98;81.30;100577.77;1756228;80;21244;-83
2021/05/25 04:00:00;;;;;;;11.33;8.18;;;;;;;17.08;80.85;100592.88;1782034;80;21310;-83
2021/05/25 04:03:06;;;;;;;12.03;8.53;;;;;;;17.08;80.00;100598.95;1725856;82;21334;-83
2021/05/25 04:06:12;;;;;;;16.95;9.68;;;;;;;16.89;79.51;100606.16;1729305;83;21308;-82
2021/05/25 04:09:18;;;;;;;14.90;8.60;;;;;;;16.73;80.17;100605.16;1725758;83;21751;-82
2021/05/25 04:12:23;;;;;;;13.45;8.13;;;;;;;16.63;80.80;100608.83;1727384;83;21253;-82
2021/05/25 04:15:33;;;;;;;11.60;7.40;;;;;;;16.50;80.87;100614.62;1722938;83;21154;-82
2021/05/25 04:18:37;;;;;;;12.88;9.28;;;;;;;16.42;81.19;100616.20;1706152;83;21795;-82
2021/05/25 04:21:43;;;;;;;14.55;9.48;;;;;;;16.39;82.11;100617.99;1747895;82;22157;-82
2021/05/25 04:24:50;;;;;;;18.57;9.48;;;;;;;16.32;81.49;100619.86;1747308;80;21223;-82
2021/05/25 04:27:57;;;;;;;14.60;9.80;;;;;;;16.22;81.27;100626.30;1721121;83;21185;-82
2021/05/25 04:31:03;;;;;;;12.35;8.25;;;;;;;16.20;81.66;100625.67;1710276;83;21156;-82
2021/05/25 04:34:09;;;;;;;13.22;8.75;;;;;;;16.27;82.17;100627.91;1712368;83;21201;-82
2021/05/25 04:37:15;;;;;;;16.87;9.18;;;;;;;16.31;81.73;100631.44;1722980;81;21688;-82
2021/05/25 04:40:21;;;;;;;15.95;9.50;;;;;;;16.31;81.31;100626.45;1718996;81;21142;-82
2021/05/25 04:43:28;;;;;;;14.25;7.85;;;;;;;16.36;80.79;100629.44;1737397;81;21193;-82
2021/05/25 04:46:19;;;;;;;12.60;8.83;;;;;;;16.43;80.84;100639.14;1706550;82;21319;-82
2021/05/25 04:49:26;;;;;;;10.90;8.78;;;;;;;16.44;80.96;100638.92;1721285;83;21280;-82
2021/05/25 04:52:33;;;;;;;14.50;10.60;;;;;;;16.47;81.14;100645.42;1696367;81;21315;-82
2021/05/25 04:55:40;;;;;;;16.45;9.88;;;;;;;16.49;80.86;100654.88;1723465;81;21161;-82
2021/05/25 04:58:46;;;;;;;14.30;9.73;;;;;;;16.44;79.91;100659.63;1725686;81;21850;-82
2021/05/25 05:01:53;;;;;;;13.70;10.28;;;;;;;16.43;80.03;100662.61;1726454;81;21263;-82
2021/05/25 05:04:59;;;;;;;14.40;9.58;;;;;;;16.42;80.13;100667.28;1727685;83;21708;-82
2021/05/25 05:08:05;;;;;;;17.15;10.32;;;;;;;16.39;80.34;100673.20;1730485;83;21299;-83
2021/05/25 05:11:11;;;;;;;15.70;10.43;;;;;;;16.35;80.19;100673.28;1701576;83;21788;-83
2021/05/25 05:14:16;;;;;;;15.35;10.88;;;;;;;16.29;79.97;100674.12;1725591;81;21158;-83
2021/05/25 05:17:26;;;;;;;16.12;11.18;;;;;;;16.26;80.30;100671.22;1723741;81;21280;-84
2021/05/25 05:20:32;;;;;;;16.47;11.07;;;;;;;16.24;80.16;100679.41;1725966;81;21190;-83
2021/05/25 05:23:42;;;;;;;15.63;11.33;;;;;;;16.24;80.14;100684.92;1720101;81;21846;-82
2021/05/25 05:26:49;;;;;;;22.22;12.73;;;;;;;16.29;80.00;100686.01;1723205;81;21536;-84
2021/05/25 05:29:55;;;;;;;17.20;11.93;;;;;;;16.38;79.77;100677.03;1721889;81;21300;-82
2021/05/25 05:33:01;;;;;;;15.55;11.08;;;;;;;16.51;79.27;100681.20;1722401;81;21893;-82
2021/05/25 05:36:06;;;;;;;15.70;10.98;;;;;;;16.68;79.36;100676.71;1723277;81;21189;-82
2021/05/25 05:39:11;;;;;;;16.97;9.93;;;;;;;16.86;77.91;100678.39;1723600;81;21683;-84
2021/05/25 05:42:18;;;;;;;13.58;9.13;;;;;;;17.10;77.49;100673.66;1721529;81;21204;-82
2021/05/25 05:45:23;;;;;;;15.25;11.53;;;;;;;17.31;76.26;100676.78;1721053;81;21723;-84
2021/05/25 05:48:30;;;;;;;16.85;10.60;;;;;;;17.48;75.93;100674.97;1701028;82;21175;-80
2021/05/25 05:51:35;;;;;;;17.00;10.32;;;;;;;17.52;74.97;100670.18;1701972;82;21180;-79
2021/05/25 05:54:41;;;;;;;17.12;9.90;;;;;;;17.45;74.81;100672.08;1701212;82;21917;-80
2021/05/25 05:57:49;;;;;;;17.02;10.48;;;;;;;17.48;75.48;100674.43;1677361;83;21235;-81
2021/05/25 06:00:53;;;;;;;13.20;9.88;;;;;;;17.49;74.20;100672.51;1696718;82;21184;-80
2021/05/25 06:03:59;;;;;;;12.07;9.38;;;;;;;17.47;74.37;100671.35;1693359;82;21266;-80
2021/05/25 06:07:07;;;;;;;16.37;10.95;;;;;;;17.47;75.02;100669.97;1699457;82;21538;-80
2021/05/25 06:10:14;;;;;;;14.00;9.75;;;;;;;17.55;75.22;100669.77;1647895;84;21181;-79
2021/05/25 06:13:19;;;;;;;14.20;9.03;;;;;;;17.65;74.94;100668.48;1676960;83;21169;-85
2021/05/25 06:16:34;;;;;;;14.87;10.43;;;;;;;17.71;74.86;100673.15;1677393;83;21812;-79
2021/05/25 06:19:44;;;;;;;16.02;10.70;;;;;;;17.83;74.55;100670.06;1675890;83;21232;-85
2021/05/25 06:22:55;;;;;;;14.07;9.23;;;;;;;17.94;74.22;100670.81;1686194;83;21227;-84
2021/05/25 06:26:06;;;;;;;16.87;9.83;;;;;;;18.05;72.92;100674.82;1670120;84;21352;-79
2021/05/25 06:29:12;;;;;;;14.03;10.10;;;;;;;18.04;72.77;100678.66;1679404;83;21235;-78
2021/05/25 06:32:18;;;;;;;15.35;7.75;;;;;;;18.10;72.86;100677.25;1698855;82;21824;-77
2021/05/25 06:35:29;;;;;;;10.23;7.00;;;;;;;18.28;73.08;100679.88;1700594;82;21204;-80
2021/05/25 06:38:34;;;;;;;10.05;6.85;;;;;;;18.38;72.06;100674.18;1669437;84;21241;-80
2021/05/25 06:41:40;;;;;;;13.18;6.03;;;;;;;18.57;71.48;100669.62;1683743;83;21209;-80
2021/05/25 06:44:47;;;;;;;8.98;6.00;;;;;;;18.75;70.33;100666.70;1684545;83;21204;-80
2021/05/25 06:48:11;;;;;;;7.28;5.95;;;;;;;18.92;70.59;100650.42;1688546;83;21828;-76
2021/05/25 06:51:27;;;;;;;13.98;6.92;;;;;;;19.05;69.28;100644.77;1714000;81;21245;-76
2021/05/25 06:54:36;;;;;;;11.30;5.72;;;;;;;19.15;68.88;100636.28;1711868;82;21201;-77
2021/05/25 06:57:45;;;;;;;10.17;5.83;;;;;;;19.27;68.46;100636.94;1715904;83;21228;-77
2021/05/25 07:01:00;;;;;;;8.30;5.30;;;;;;;19.37;67.69;100634.50;1692925;82;21186;-78
2021/05/25 07:04:05;;;;;;;6.25;4.60;;;;;;;19.43;66.79;100632.73;1759496;80;21319;-77
2021/05/25 07:07:12;;;;;;;6.03;3.87;;;;;;;19.47;67.13;100629.83;1759077;79;21857;-78
2021/05/25 07:10:18;;;;;;;5.78;3.90;;;;;;;19.51;66.46;100635.23;1762949;79;21213;-77
2021/05/25 07:13:23;;;;;;;6.40;4.75;;;;;;;19.58;66.58;100631.88;1761991;79;21362;-76
2021/05/25 07:16:29;;;;;;;5.65;4.42;;;;;;;19.60;65.26;100638.06;1721638;82;21232;-77
2021/05/25 07:19:36;;;;;;;6.08;4.28;;;;;;;19.62;65.90;100634.00;1758038;79;21658;-77
2021/05/25 07:22:43;;;;;;;8.43;4.10;;;;;;;19.78;66.06;100638.64;1761482;79;21165;-77
2021/05/25 07:25:49;;;;;;;8.10;4.50;;;;;;;19.93;64.99;100640.51;1760412;79;21761;-76
2021/05/25 07:28:57;;;;;;;8.45;4.60;;;;;;;20.10;64.24;100644.93;1757960;79;21205;-81
2021/05/25 07:32:04;;;;;;;4.70;3.40;;;;;;;20.24;63.39;100640.07;1740551;79;21215;-78
2021/05/25 07:35:12;;;;;;;6.10;4.00;;;;;;;20.38;62.85;100644.38;1761274;79;21142;-80
2021/05/25 07:38:17;;;;;;;5.95;3.70;;;;;;;20.39;63.15;100639.97;1759029;79;21299;-80
2021/05/25 07:41:28;;;;;;;7.17;3.27;;;;;;;20.57;63.89;100640.53;1757764;81;21279;-76
2021/05/25 07:44:37;;;;;;;4.17;3.37;;;;;;;20.79;61.77;100640.00;1759442;79;21637;-80
2021/05/25 07:47:43;;;;;;;6.55;3.47;;;;;;;20.83;62.25;100635.67;1761908;79;22075;-76
2021/05/25 07:50:49;;;;;;;7.45;3.87;;;;;;;20.87;60.53;100634.13;1723433;81;22152;-80
2021/05/25 07:53:55;;;;;;;4.67;3.40;;;;;;;20.90;60.51;100626.16;1709883;81;21767;-79
2021/05/25 07:57:06;;;;;;;3.50;2.50;;;;;;;21.00;60.18;100627.52;1710416;82;21179;-76
2021/05/25 08:00:17;;;;;;;4.80;3.12;;;;;;;21.10;60.24;100632.80;1712369;82;21288;-76
2021/05/25 08:03:58;;;;;;;8.90;2.98;;;;;;;21.06;59.78;100635.75;1703982;82;21201;-80
2021/05/25 08:07:04;;;;;;;5.50;3.02;;;;;;;20.94;59.75;100627.94;1711005;83;21190;-80
2021/05/25 08:10:13;;;;;;;9.38;3.22;;;;;;;20.96;60.23;100634.09;1710620;82;21603;-79
2021/05/25 08:13:28;;;;;;;8.58;3.27;;;;;;;21.10;59.45;100620.83;1673727;82;21204;-76
2021/05/25 08:16:40;;;;;;;4.60;2.77;;;;;;;21.17;59.36;100626.61;1709388;82;21199;-76
2021/05/25 08:19:44;;;;;;;3.47;2.62;;;;;;;21.17;59.49;100636.86;1692650;83;21691;-77
2021/05/25 08:22:54;;;;;;;6.33;3.47;;;;;;;21.13;60.22;100618.98;1710809;82;21811;-79
2021/05/25 08:26:04;;;;;;;3.95;2.90;;;;;;;21.11;60.53;100612.79;1708881;83;21195;-80
2021/05/25 08:29:11;;;;;;;5.72;3.35;;;;;;;21.18;59.54;100609.38;1702359;82;21584;-79
2021/05/25 08:32:17;;;;;;;7.75;3.12;;;;;;;21.27;59.15;100608.48;1708153;81;21199;-76
2021/05/25 08:35:45;;;;;;;3.58;2.47;;;;;;;21.41;58.73;100612.22;1719350;81;21369;-75
2021/05/25 08:39:01;;;;;;;5.22;2.95;;;;;;;21.50;57.14;100620.19;1716799;81;21924;-76
2021/05/25 08:42:16;;;;;;;4.65;2.50;;;;;;;21.47;56.82;100622.08;1720562;81;21303;-78
2021/05/25 08:45:25;;;;;;;4.92;2.27;;;;;;;21.49;56.52;100622.67;1716533;81;21197;-77
2021/05/25 08:48:35;;;;;;;2.60;1.80;;;;;;;21.46;56.70;100614.28;1719283;81;21275;-79
2021/05/25 08:51:46;;;;;;;2.80;1.70;;;;;;;21.44;55.67;100615.05;1707635;81;21307;-79
2021/05/25 08:54:57;;;;;;;4.08;2.00;;;;;;;21.46;55.24;100607.88;1747778;79;21239;-76
2021/05/25 08:58:06;;;;;;;2.00;1.52;;;;;;;21.52;55.69;100622.20;1719907;81;21575;-78
2021/05/25 09:01:24;;;;;;;2.80;1.82;;;;;;;21.51;55.79;100610.23;1761768;79;21280;-77
2021/05/25 09:05:19;;;;;;;2.58;1.00;;;;;;;21.58;53.87;100603.14;1768611;79;21813;-76
2021/05/25 09:08:27;;;;;;;3.27;1.27;;;;;;;21.55;54.08;100611.97;1760173;79;21216;-79
2021/05/25 09:11:33;;;;;;;3.58;1.67;;;;;;;21.49;54.48;100608.77;1758965;79;21224;-79
2021/05/25 09:14:53;;;;;;;4.22;1.50;;;;;;;21.45;54.51;100611.17;1759115;79;21184;-76
2021/05/25 09:17:59;;;;;;;5.22;1.32;;;;;;;21.42;54.84;100611.67;1762300;79;21190;-77
2021/05/25 09:21:07;;;;;;;2.17;1.50;;;;;;;21.40;56.49;100611.89;1747630;79;21156;-77
2021/05/25 09:24:14;;;;;;;2.72;1.62;;;;;;;21.58;56.94;100609.55;1761350;79;21791;-77
2021/05/25 09:27:46;;;;;;;5.00;1.52;;;;;;;21.88;54.82;100604.42;1699505;82;21733;-79
2021/05/25 09:30:50;;;;;;;4.37;1.65;;;;;;;22.05;54.29;100617.88;1759791;79;21216;-80
2021/05/25 09:34:25;;;;;;;10.63;1.92;;;;;;;21.97;54.42;100619.63;1758931;79;21181;-76
2021/05/25 09:37:32;;;;;;;7.25;1.80;;;;;;;21.98;56.05;100622.74;1760015;79;21854;-81
2021/05/25 09:40:41;;;;;;;4.45;1.60;;;;;;;22.03;54.91;100624.25;1756757;79;21723;-76
2021/05/25 09:43:54;;;;;;;5.90;1.67;;;;;;;21.93;54.85;100619.30;1767778;79;21508;-79
2021/05/25 09:47:02;;;;;;;2.52;1.70;;;;;;;21.88;54.44;100624.75;1761954;79;21901;-77
2021/05/25 09:50:10;;;;;;;2.05;1.40;;;;;;;21.83;55.55;100620.98;1758375;79;21177;-79
2021/05/25 09:53:21;;;;;;;6.75;1.42;;;;;;;21.79;54.86;100617.02;1706347;82;21176;-80
2021/05/25 09:56:35;;;;;;;4.78;1.42;;;;;;;21.83;55.46;100618.20;1708308;83;21193;-79
2021/05/25 09:59:45;;;;;;;2.70;1.30;;;;;;;21.94;54.91;100611.79;1760271;79;21216;-80
2021/05/25 10:02:51;;;;;;;6.33;1.40;;;;;;;22.06;55.04;100611.75;1761479;79;21782;-79
2021/05/25 10:06:01;;;;;;;4.28;1.12;;;;;;;22.06;55.16;100613.99;1761612;79;21311;-80
2021/05/25 10:09:07;;;;;;;2.67;1.52;;;;;;;22.11;53.76;100623.91;1754124;79;21694;-77
2021/05/25 10:12:12;;;;;;;3.40;1.32;;;;;;;21.99;52.75;100610.51;1719095;82;21156;-77
2021/05/25 10:15:19;;;;;;;1.85;1.05;;;;;;;21.90;53.13;100616.15;1760368;79;21502;-77
2021/05/25 10:21:42;;;;;;;2.60;1.10;;;;;;;22.01;53.12;100617.22;1721022;82;21318;-81
2021/05/25 10:24:50;;;;;;;2.45;1.12;;;;;;;22.13;52.79;100608.34;1761157;79;21165;-80
2021/05/25 10:27:54;;;;;;;2.75;1.10;;;;;;;22.18;51.81;100606.50;1762417;79;21338;-80
2021/05/25 10:31:01;;;;;;;2.33;1.10;;;;;;;22.29;52.30;100612.28;1761218;79;21443;-80
2021/05/25 10:34:29;;;;;;;3.22;1.37;;;;;;;22.50;51.96;100610.78;1760513;79;21227;-79
2021/05/25 10:37:35;;;;;;;3.27;1.20;;;;;;;22.74;51.49;100607.36;1755745;79;21170;-79
2021/05/25 10:40:49;;;;;;;2.92;1.37;;;;;;;23.01;51.25;100601.48;1762063;79;21680;-82
2021/05/25 10:43:50;;;;;;;3.12;1.00;;;;;;;23.09;50.40;100604.39;1722433;81;21315;-81
2021/05/25 10:47:22;;;;;;;1.52;0.95;;;;;;;23.03;49.25;100606.25;1760633;79;21279;-81
2021/05/25 10:50:37;;;;;;;3.08;1.17;;;;;;;22.95;49.61;100604.71;1744124;81;21330;-80
2021/05/25 10:53:39;;;;;;;2.70;1.12;;;;;;;23.05;49.12;100597.07;1760986;80;21630;-79
2021/05/25 10:56:44;;;;;;;1.70;1.10;;;;;;;23.03;48.89;100597.05;1763593;79;21899;-79
2021/05/25 11:00:26;;;;;;;3.83;1.30;;;;;;;23.04;48.16;100587.02;1731418;81;21848;-79
2021/05/25 11:03:31;;;;;;;2.92;1.20;;;;;;;23.24;50.32;100592.65;1711530;82;21599;-80
2021/05/25 11:06:36;;;;;;;1.70;1.12;;;;;;;23.32;49.47;100593.63;1714315;82;21287;-81
2021/05/25 11:09:43;;;;;;;2.27;1.00;;;;;;;23.29;49.07;100595.52;1715321;82;21182;-79
2021/05/25 11:12:49;;;;;;;2.95;0.93;;;;;;;23.25;48.79;100592.42;1731449;81;21223;-80
2021/05/25 11:16:20;;;;;;;2.33;1.20;;;;;;;23.27;48.86;100588.81;1736978;81;21314;-80
2021/05/25 11:19:43;;;;;;;1.35;0.85;;;;;;;23.29;48.91;100584.36;1733903;82;21908;-81
2021/05/25 11:22:45;;;;;;;2.45;1.30;;;;;;;23.25;49.46;100589.63;1734780;81;21617;-82
2021/05/25 11:25:52;;;;;;;1.75;1.02;;;;;;;23.19;49.39;100578.91;1718735;81;21339;-82
2021/05/25 11:29:27;;;;;;;1.30;1.00;;;;;;;23.22;49.43;100584.55;1715385;82;21285;-81
2021/05/25 11:32:35;;;;;;;3.25;1.02;;;;;;;23.32;49.25;100574.09;1717971;82;21158;-80
2021/05/25 11:35:40;;;;;;;2.47;1.00;;;;;;;23.47;48.73;100578.52;1732028;82;21161;-80
2021/05/25 11:38:46;;;;;;;4.42;1.10;;;;;;;23.67;48.78;100580.28;1728688;81;21172;-80
2021/05/25 11:41:52;;;;;;;7.05;1.20;;;;;;;23.73;47.97;100577.02;1729526;82;21180;-81
2021/05/25 11:44:59;;;;;;;8.55;1.47;;;;;;;23.68;48.82;100578.33;1728496;82;22199;-81
2021/05/25 11:48:09;;;;;;;3.08;1.20;;;;;;;23.74;49.26;100578.70;1725741;82;21579;-80
2021/05/25 11:51:18;;;;;;;2.12;1.02;;;;;;;23.79;48.34;100580.16;1720875;82;21527;-81
2021/05/25 11:54:28;;;;;;;4.65;1.12;;;;;;;23.73;48.08;100580.36;1721509;81;21308;-80
2021/05/25 11:57:46;;;;;;;;;;;;;;;23.61;48.71;100575.67;1662607;84;21726;-82
2021/05/25 12:00:52;;;;;;;4.53;1.10;;;;;;;23.60;48.89;100575.94;1684410;84;20292;-80
2021/05/25 12:03:56;;;;;;;4.03;1.32;;;;;;;23.61;48.52;100572.87;1684643;84;21201;-81
2021/05/25 12:07:03;;;;;;;1.72;1.20;;;;;;;23.73;48.37;100574.77;1682524;84;21347;-77
2021/05/25 12:10:14;;;;;;;3.05;1.40;;;;;;;23.86;47.43;100571.62;1713532;82;21454;-77
2021/05/25 12:13:22;;;;;;;1.50;0.98;;;;;;;23.93;46.97;100569.46;1717576;83;21210;-77
2021/05/25 12:16:28;;;;;;;4.03;1.02;;;;;;;23.84;46.39;100567.66;1717073;83;21202;-77
2021/05/25 12:19:33;;;;;;;2.62;0.98;;;;;;;23.86;46.44;100575.80;1711657;81;21308;-78
2021/05/25 12:22:41;;;;;;;3.10;1.00;;;;;;;23.96;45.98;100569.80;1717251;81;21343;-77
2021/05/25 12:25:55;;;;;;;4.65;1.27;;;;;;;24.10;46.65;100573.61;1658295;86;21165;-77
2021/05/25 12:29:02;;;;;;;1.05;0.95;;;;;;;24.16;45.41;100558.04;1719576;83;21300;-77
2021/05/25 12:32:07;;;;;;;1.62;0.85;;;;;;;24.25;45.08;100565.42;1715971;82;21325;-77
2021/05/25 12:35:14;;;;;;;2.58;1.20;;;;;;;24.34;44.54;100555.47;1718846;83;21515;-77
2021/05/25 12:38:21;;;;;;;5.92;1.05;;;;;;;24.44;44.98;100552.81;1722590;81;21626;-77
2021/05/25 12:41:27;;;;;;;1.65;1.05;;;;;;;24.47;45.00;100552.86;1717967;83;21332;-77
2021/05/25 12:44:41;;;;;;;4.95;1.10;;;;;;;24.51;45.08;100548.41;1719990;81;21312;-77
2021/05/25 12:48:06;;;;;;;4.40;1.00;;;;;;;24.55;44.92;100539.78;1724258;81;21948;-77
2021/05/25 12:51:12;;;;;;;2.25;0.90;;;;;;;24.59;45.37;100542.91;1721986;83;21920;-77
2021/05/25 12:54:20;;;;;;;2.08;1.20;;;;;;;24.53;45.59;100547.61;1721082;81;21748;-77
2021/05/25 12:57:25;;;;;;;1.62;0.90;;;;;;;24.26;46.37;100545.30;1698669;83;21798;-77
2021/05/25 13:00:46;;;;;;;4.60;1.30;;;;;;;24.06;46.34;100542.55;1702875;82;21853;-77
2021/05/25 13:03:51;;;;;;;3.52;1.00;;;;;;;23.82;45.96;100533.58;1708636;82;21386;-77
2021/05/25 13:07:02;;;;;;;5.70;1.15;;;;;;;23.58;46.48;100527.90;1708890;83;21240;-77
2021/05/25 13:10:10;;;;;;;2.02;1.02;;;;;;;23.40;46.61;100528.47;1719568;83;21263;-77
2021/05/25 13:13:31;;;;;;;1.50;1.05;;;;;;;23.29;47.57;100528.03;1766108;79;22121;-77
2021/05/25 13:16:36;;;;;;;2.90;1.15;;;;;;;23.17;46.36;100523.08;1737526;81;21216;-77
2021/05/25 13:19:55;;;;;;;1.72;0.93;;;;;;;23.07;48.38;100517.34;1760907;81;21704;-77
2021/05/25 13:22:57;;;;;;;1.40;1.07;;;;;;;22.94;48.06;100516.56;1765898;81;21838;-79
2021/05/25 13:29:21;;;;;;;5.62;1.37;;;;;;;22.82;47.93;100521.36;1766001;81;21324;-80
2021/05/25 13:32:26;;;;;;;3.10;1.10;;;;;;;22.69;48.03;100519.73;1770737;81;21758;-80
2021/05/25 13:35:33;;;;;;;4.00;1.45;;;;;;;22.54;48.51;100516.66;1765890;81;21260;-81
2021/05/25 13:38:39;;;;;;;2.70;1.02;;;;;;;22.50;48.98;100514.63;1769917;81;21308;-80
2021/05/25 13:41:44;;;;;;;9.98;1.37;;;;;;;22.49;49.81;100511.00;1768916;81;21755;-81
2021/05/25 13:44:50;;;;;;;2.17;1.10;;;;;;;22.53;50.14;100506.59;1768637;81;21138;-81
2021/05/25 13:47:56;;;;;;;1.87;1.10;;;;;;;22.54;49.75;100506.91;1770330;81;21928;-78
2021/05/25 13:51:02;;;;;;;2.37;1.40;;;;;;;22.50;49.52;100500.14;1726734;82;21172;-78
2021/05/25 13:54:09;;;;;;;2.65;1.12;;;;;;;22.48;49.62;100495.90;1738832;82;21839;-78
2021/05/25 13:57:19;;;;;;;3.40;1.15;;;;;;;22.46;49.41;100504.52;1709154;84;21228;-79
2021/05/25 14:00:41;;;;;;;;;;;;;;;22.40;49.06;100496.62;1705893;84;21730;-79
2021/05/25 14:03:53;;;;;;;1.52;1.10;;;;;;;22.36;49.39;100493.19;1708745;83;20252;-79
2021/05/25 14:07:05;;;;;;;3.47;1.30;;;;;;;22.31;49.51;100488.91;1739850;82;21181;-79
2021/05/25 14:10:07;;;;;;;2.10;1.27;;;;;;;22.28;50.70;100489.41;1738666;82;21814;-79
2021/05/25 14:13:12;;;;;;;3.72;1.22;;;;;;;22.26;50.06;100494.39;1708147;82;21865;-79
2021/05/25 14:16:18;;;;;;;1.92;1.20;;;;;;;22.25;49.82;100487.95;1707934;84;21166;-79
2021/05/25 14:19:23;;;;;;;3.15;1.17;;;;;;;22.23;48.73;100478.16;1707638;82;21778;-79
2021/05/25 14:22:28;;;;;;;1.52;1.15;;;;;;;22.19;48.66;100475.86;1708965;82;21177;-79
2021/05/25 14:25:34;;;;;;;1.57;1.07;;;;;;;22.18;48.87;100476.12;1708288;84;21327;-79
2021/05/25 14:28:38;;;;;;;4.20;1.10;;;;;;;22.17;49.42;100479.45;1708710;82;21880;-79
2021/05/25 14:31:45;;;;;;;2.47;1.32;;;;;;;22.16;49.63;100477.77;1709343;84;21296;-79
2021/05/25 14:34:50;;;;;;;1.70;1.30;;;;;;;22.12;49.50;100471.00;1707844;84;21833;-79